Eleonora Maersk — OVXP2 — position and weather

sailwx.info

Track history (hours):
 
Tides and Currents Weather Stations Pressure Air Temp Water Temp Dewpoint Dewpoint Depression Visibility Wind Speed Wind Dir Waves Ship Positions

Eleonora Maersk

Last reported at 2018-Feb-23 01:50 UTC. Time now 2018-Feb-23 06:12 UTC.
Position N 01°15' E 104°07'.

Length 398 m; draft 11.3 m.

Type: Ship (hazmat cat A). MMSI: 220477000.

Date/timePositionNaut miles runAvg speedWind from/ knotsBaromVisibWave heightAir tempDewpointWater temp
2018-Feb-23 01:50N 01°15' E 104°07'717.6
2018-Feb-23 01:28N 01°14' E 104°01'716.1
2018-Feb-23 01:00N 01°12' E 103°54'815.7
2018-Feb-23 00:31N 01°09' E 103°47'815.0
2018-Feb-22 23:59N 01°04' E 103°40'714.7
2018-Feb-22 23:30N 01°05' E 103°34'917.9
2018-Feb-22 23:00N 01°10' E 103°26'917.8
2018-Feb-22 22:29N 01°16' E 103°19'  
2018-Feb-18 05:20N 14°11' E 070°21'720.5
2018-Feb-18 05:00N 14°16' E 070°16'1020.6
2018-Feb-18 04:31N 14°23' E 070°08'37720.4
2018-Feb-17 10:03N 18°36' E 065°16'221.1
2018-Feb-17 09:59N 18°37' E 065°15'  
Track history (hours):
 
Tides and Currents Weather Stations Pressure Air Temp Water Temp Dewpoint Dewpoint Depression Visibility Wind Speed Wind Dir Waves Ship Positions

Eleonora Maersk

Last reported at 2018-Feb-23 01:50 UTC. Time now 2018-Feb-23 06:12 UTC.
Position N 01°15' E 104°07'.

Length 398 m; draft 11.3 m.

Type: Ship (hazmat cat A). MMSI: 220477000.

Date/timePositionNaut miles runAvg speedWind from/ knotsBaromVisibWave heightAir tempDewpointWater temp
2018-Feb-23 01:50N 01°15' E 104°07'717.6
2018-Feb-23 01:28N 01°14' E 104°01'716.1
2018-Feb-23 01:00N 01°12' E 103°54'815.7
2018-Feb-23 00:31N 01°09' E 103°47'815.0
2018-Feb-22 23:59N 01°04' E 103°40'714.7
2018-Feb-22 23:30N 01°05' E 103°34'917.9
2018-Feb-22 23:00N 01°10' E 103°26'917.8
2018-Feb-22 22:29N 01°16' E 103°19'  
2018-Feb-18 05:20N 14°11' E 070°21'720.5
2018-Feb-18 05:00N 14°16' E 070°16'1020.6
2018-Feb-18 04:31N 14°23' E 070°08'37720.4
2018-Feb-17 10:03N 18°36' E 065°16'221.1
2018-Feb-17 09:59N 18°37' E 065°15'  

Dump ship's entire track history